createdAt,value
2018-04-26T00:01:15.299Z,69.56
2018-04-26T00:03:44.090Z,70.07
2018-04-26T00:06:12.897Z,70.26
2018-04-26T00:08:41.589Z,70.45
2018-04-26T00:11:10.386Z,70.76
2018-04-26T00:13:39.105Z,71.37
2018-04-26T00:16:08.402Z,71.81
2018-04-26T00:18:38.881Z,71.92
2018-04-26T00:21:12.068Z,72.57
2018-04-26T00:23:40.814Z,73.11
2018-04-26T00:26:09.526Z,73.37
2018-04-26T00:28:38.126Z,73.47
2018-04-26T00:31:07.845Z,73.69
2018-04-26T00:33:36.614Z,71.81
2018-04-26T00:36:07.808Z,70.53
2018-04-26T00:38:37.460Z,70.04
2018-04-26T00:41:06.962Z,70.12
2018-04-26T00:43:36.293Z,70.24
2018-04-26T00:46:05.302Z,70.45
2018-04-26T00:48:34.691Z,71.06
2018-04-26T00:51:04.133Z,71.70
2018-04-26T00:53:32.845Z,72.59
2018-04-26T00:56:01.489Z,73.03
2018-04-26T00:58:30.214Z,74.83
2018-04-26T01:01:00.482Z,75.02
2018-04-26T01:03:29.451Z,75.50
2018-04-26T01:05:58.939Z,76.38
2018-04-26T01:08:27.974Z,76.54
2018-04-26T01:10:57.784Z,76.61
2018-04-26T01:13:27.055Z,75.46
2018-04-26T01:15:55.706Z,74.58
2018-04-26T01:18:25.276Z,73.39
2018-04-26T01:20:53.864Z,72.68
2018-04-26T01:23:22.684Z,71.83
2018-04-26T01:25:51.369Z,72.05
2018-04-26T01:28:20.045Z,72.54
2018-04-26T01:30:48.820Z,73.91
2018-04-26T01:33:17.635Z,74.59
2018-04-26T01:35:46.571Z,75.16
2018-04-26T01:38:15.353Z,75.50
2018-04-26T01:40:44.323Z,75.88
2018-04-26T01:43:14.430Z,76.34
2018-04-26T01:45:43.924Z,76.69
2018-04-26T01:48:12.740Z,76.94
2018-04-26T01:50:41.367Z,77.00
2018-04-26T01:53:10.224Z,77.32
2018-04-26T01:55:39.183Z,77.11
2018-04-26T01:58:07.970Z,75.72
2018-04-26T02:00:36.675Z,75.43
2018-04-26T02:03:05.390Z,75.48
2018-04-26T02:05:34.098Z,75.66
2018-04-26T02:08:02.789Z,75.10
2018-04-26T02:10:31.619Z,75.33
2018-04-26T02:13:01.074Z,75.70
2018-04-26T02:15:31.193Z,75.47
2018-04-26T02:17:59.986Z,75.93
2018-04-26T02:20:28.738Z,77.13
2018-04-26T02:22:57.347Z,77.20
2018-04-26T02:25:26.109Z,77.19
2018-04-26T02:27:54.926Z,76.90
2018-04-26T02:30:23.714Z,76.75
2018-04-26T02:32:52.479Z,76.97
2018-04-26T02:35:21.262Z,77.14
2018-04-26T02:37:50.061Z,77.63
2018-04-26T02:40:18.869Z,78.07
2018-04-26T02:42:47.897Z,78.60
2018-04-26T02:45:18.379Z,79.21
2018-04-26T02:47:48.467Z,79.49
2018-04-26T02:50:18.113Z,80.01
2018-04-26T02:52:46.831Z,80.17
2018-04-26T02:55:15.717Z,80.33
2018-04-26T02:57:44.513Z,79.95
2018-04-26T03:00:13.313Z,79.81
2018-04-26T03:02:42.756Z,79.23
2018-04-26T03:05:11.416Z,78.15
2018-04-26T03:07:40.240Z,77.54
2018-04-26T03:10:09.715Z,78.11
2018-04-26T03:12:38.733Z,78.28
2018-04-26T03:15:07.917Z,78.29
2018-04-26T03:17:36.746Z,78.95
2018-04-26T03:20:05.444Z,79.31
2018-04-26T03:22:34.164Z,79.63
2018-04-26T03:25:02.835Z,79.38
2018-04-26T03:27:32.156Z,79.43
2018-04-26T03:30:01.709Z,79.90
2018-04-26T03:32:30.437Z,80.14
2018-04-26T03:34:59.856Z,80.53
2018-04-26T03:37:28.572Z,80.66
2018-04-26T03:39:57.343Z,80.73
2018-04-26T03:42:27.098Z,81.03
2018-04-26T03:44:56.287Z,81.20
2018-04-26T03:47:26.275Z,81.44
2018-04-26T03:49:55.089Z,81.35
2018-04-26T03:52:23.891Z,80.79
2018-04-26T03:54:52.457Z,80.44
2018-04-26T03:57:21.206Z,80.84
2018-04-26T04:00:08.453Z,81.28
2018-04-26T04:02:54.932Z,81.50
2018-04-26T04:08:35.540Z,81.24
2018-04-26T04:11:05.088Z,81.17
2018-04-26T04:13:35.661Z,81.37
2018-04-26T04:16:04.430Z,81.29
2018-04-26T04:18:34.370Z,81.10
2018-04-26T04:21:04.005Z,81.02
2018-04-26T04:23:33.611Z,81.13
2018-04-26T04:26:02.257Z,80.77
2018-04-26T04:28:30.992Z,80.11
2018-04-26T04:30:59.712Z,80.10
2018-04-26T04:33:28.554Z,80.21
2018-04-26T04:35:58.247Z,79.97
2018-04-26T04:38:28.143Z,80.17
2018-04-26T04:40:57.974Z,80.16
2018-04-26T04:43:27.074Z,79.84
2018-04-26T04:45:56.653Z,79.35
2018-04-26T04:48:25.794Z,79.23
2018-04-26T04:50:55.395Z,78.35
2018-04-26T04:53:24.151Z,78.49
2018-04-26T04:55:52.910Z,78.52
2018-04-26T04:58:21.709Z,78.56
2018-04-26T05:00:50.635Z,78.69
2018-04-26T05:03:19.329Z,78.78
2018-04-26T05:05:48.006Z,78.48
2018-04-26T05:08:18.114Z,78.21
2018-04-26T05:10:47.349Z,77.95
2018-04-26T05:13:16.837Z,77.52
2018-04-26T05:15:45.783Z,77.27
2018-04-26T05:18:15.590Z,76.75
2018-04-26T05:20:44.358Z,76.59
2018-04-26T05:23:13.918Z,76.04
2018-04-26T05:25:42.743Z,75.36
2018-04-26T05:28:11.521Z,73.03
2018-04-26T05:30:40.240Z,70.78
2018-04-26T05:33:09.053Z,66.92
2018-04-26T05:35:37.854Z,63.45
2018-04-26T05:38:07.344Z,61.48
2018-04-26T05:40:37.549Z,58.67
2018-04-26T05:43:06.871Z,56.39
2018-04-26T05:45:35.518Z,55.42
2018-04-26T05:48:05.094Z,53.99
2018-04-26T05:50:33.812Z,54.87
2018-04-26T05:53:02.545Z,55.19
2018-04-26T05:55:31.219Z,54.31
2018-04-26T05:58:00.239Z,53.85
2018-04-26T06:00:28.989Z,51.84
2018-04-26T06:02:57.974Z,53.05
2018-04-26T06:05:27.169Z,51.53
2018-04-26T06:07:56.439Z,50.96
2018-04-26T06:10:26.202Z,49.17
2018-04-26T06:12:55.101Z,48.79
2018-04-26T06:15:24.529Z,46.90
2018-04-26T06:17:54.079Z,45.35
2018-04-26T06:20:23.053Z,45.33
2018-04-26T06:22:51.863Z,44.45
2018-04-26T06:25:20.603Z,43.26
2018-04-26T06:27:49.483Z,43.35
2018-04-26T06:30:18.140Z,43.86
2018-04-26T06:32:46.728Z,43.17
2018-04-26T06:35:15.686Z,42.52
2018-04-26T06:37:44.370Z,42.75
2018-04-26T06:40:14.657Z,43.26
2018-04-26T06:42:43.888Z,42.60
2018-04-26T06:45:13.490Z,44.15
2018-04-26T06:47:42.236Z,43.28
2018-04-26T06:50:11.016Z,41.53
2018-04-26T06:52:39.673Z,42.86
2018-04-26T06:55:08.391Z,41.85
2018-04-26T06:57:37.050Z,41.10
2018-04-26T07:00:06.845Z,40.52
2018-04-26T07:02:35.429Z,39.73
2018-04-26T07:05:04.067Z,41.30
2018-04-26T07:07:32.773Z,45.45
2018-04-26T07:10:02.962Z,42.48
2018-04-26T07:12:31.931Z,40.77
2018-04-26T07:15:01.052Z,38.04
2018-04-26T07:17:29.669Z,39.16
2018-04-26T07:19:58.514Z,37.47
2018-04-26T07:22:27.323Z,34.82
2018-04-26T07:24:55.999Z,34.08
2018-04-26T07:27:25.444Z,33.13
2018-04-26T07:29:54.859Z,32.73
2018-04-26T07:32:24.205Z,32.86
2018-04-26T07:34:52.830Z,31.92
2018-04-26T07:37:21.552Z,32.54
2018-04-26T07:39:50.156Z,33.60
2018-04-26T07:42:19.504Z,33.77
2018-04-26T07:44:48.935Z,34.26
2018-04-26T07:47:18.425Z,33.08
2018-04-26T07:49:47.135Z,32.35
2018-04-26T07:52:15.735Z,31.67
2018-04-26T07:54:44.493Z,30.74
2018-04-26T07:57:13.924Z,31.53
2018-04-26T07:59:43.313Z,30.30
2018-04-26T08:02:12.045Z,28.82
2018-04-26T08:04:40.767Z,29.67
2018-04-26T08:07:10.221Z,28.97
2018-04-26T08:09:39.027Z,28.75
2018-04-26T08:12:07.813Z,28.84
2018-04-26T08:14:38.127Z,29.49
2018-04-26T08:17:07.813Z,28.43
2018-04-26T08:19:36.761Z,28.82
2018-04-26T08:22:05.560Z,26.64
2018-04-26T08:24:34.237Z,27.86
2018-04-26T08:27:03.884Z,25.33
2018-04-26T08:29:32.737Z,26.40
2018-04-26T08:32:01.379Z,28.27
2018-04-26T08:34:30.101Z,29.90
2018-04-26T08:36:59.353Z,30.34
2018-04-26T08:39:28.136Z,31.15
2018-04-26T08:41:57.471Z,30.29
2018-04-26T08:44:27.001Z,26.26
2018-04-26T08:46:56.114Z,25.73
2018-04-26T08:49:26.086Z,25.67
2018-04-26T08:51:55.898Z,25.52
2018-04-26T08:54:25.462Z,23.18
2018-04-26T08:56:55.191Z,22.94
2018-04-26T08:59:23.832Z,23.36
2018-04-26T09:01:52.755Z,23.76
2018-04-26T09:04:21.982Z,22.64
2018-04-26T09:06:51.048Z,22.52
2018-04-26T09:09:19.938Z,22.27
2018-04-26T09:11:51.433Z,22.03
2018-04-26T09:14:22.015Z,22.14
2018-04-26T09:16:51.746Z,24.09
2018-04-26T09:19:20.628Z,28.33
2018-04-26T09:21:49.568Z,25.08
2018-04-26T09:24:18.658Z,24.47
2018-04-26T09:26:47.507Z,22.99
2018-04-26T09:29:16.555Z,21.75
2018-04-26T09:31:45.703Z,22.66
2018-04-26T09:34:14.463Z,22.74
2018-04-26T09:36:43.127Z,21.96
2018-04-26T09:39:12.882Z,22.28
2018-04-26T09:41:43.187Z,21.87
2018-04-26T09:44:13.779Z,20.54
2018-04-26T09:46:43.041Z,23.06
2018-04-26T09:49:13.127Z,24.19
2018-04-26T09:51:42.031Z,23.70
2018-04-26T09:54:12.006Z,23.68
2018-04-26T09:56:40.886Z,23.26
2018-04-26T09:59:10.417Z,21.10
2018-04-26T10:01:39.648Z,20.47
2018-04-26T10:04:15.201Z,20.04
2018-04-26T10:06:49.436Z,20.42
2018-04-26T10:09:19.516Z,21.13
2018-04-26T10:11:48.886Z,20.80
2018-04-26T10:14:17.906Z,21.53
2018-04-26T10:16:47.143Z,21.38
2018-04-26T10:19:16.507Z,21.43
2018-04-26T10:21:46.455Z,22.43
2018-04-26T10:24:16.274Z,23.57
2018-04-26T10:26:47.677Z,22.13
2018-04-26T10:29:16.379Z,24.89
2018-04-26T10:31:45.408Z,25.76
2018-04-26T10:34:14.106Z,25.33
2018-04-26T10:36:42.900Z,23.26
2018-04-26T10:39:14.749Z,25.21
2018-04-26T10:41:43.979Z,24.77
2018-04-26T10:44:14.166Z,23.39
2018-04-26T10:46:43.799Z,21.29
2018-04-26T10:49:12.530Z,21.75
2018-04-26T10:51:41.524Z,20.74
2018-04-26T10:54:11.399Z,20.74
2018-04-26T10:56:40.133Z,20.76
2018-04-26T10:59:08.855Z,20.91
2018-04-26T11:01:38.181Z,19.72
2018-04-26T11:04:07.548Z,19.64
2018-04-26T11:06:36.496Z,21.78
2018-04-26T11:09:06.380Z,21.33
2018-04-26T11:11:36.605Z,23.25
2018-04-26T11:14:06.371Z,21.75
2018-04-26T11:16:35.453Z,22.46
2018-04-26T11:19:05.528Z,21.72
2018-04-26T11:21:36.379Z,21.84
2018-04-26T11:24:06.563Z,22.80
2018-04-26T11:26:36.179Z,24.07
2018-04-26T11:29:05.941Z,24.45
2018-04-26T11:31:34.761Z,26.26
2018-04-26T11:34:03.903Z,24.97
2018-04-26T11:36:32.835Z,24.87
2018-04-26T11:39:02.408Z,22.24
2018-04-26T11:41:31.368Z,24.50
2018-04-26T11:44:01.254Z,26.14
2018-04-26T11:46:30.555Z,24.33
2018-04-26T11:49:00.157Z,25.58
2018-04-26T11:51:30.262Z,27.64
2018-04-26T11:53:59.837Z,26.54
2018-04-26T11:56:29.625Z,26.26
2018-04-26T11:58:59.113Z,24.59
2018-04-26T12:01:29.210Z,24.05
2018-04-26T12:03:58.688Z,25.46
2018-04-26T12:06:27.686Z,25.78
2018-04-26T12:08:57.085Z,24.37
2018-04-26T12:11:26.261Z,23.12
2018-04-26T12:13:55.766Z,23.47
2018-04-26T12:16:26.277Z,23.55
2018-04-26T12:18:55.863Z,22.46
2018-04-26T12:21:24.931Z,20.99
2018-04-26T12:23:54.580Z,20.81
2018-04-26T12:26:24.039Z,24.03
2018-04-26T12:28:54.818Z,23.52
2018-04-26T12:31:24.592Z,21.83
2018-04-26T12:33:53.673Z,21.72
2018-04-26T12:36:23.835Z,24.19
2018-04-26T12:38:52.871Z,24.64
2018-04-26T12:41:23.361Z,26.02
2018-04-26T12:43:53.041Z,26.62
2018-04-26T12:46:22.438Z,24.38
2018-04-26T12:48:52.179Z,22.55
2018-04-26T12:51:21.852Z,23.30
2018-04-26T12:53:50.762Z,25.42
2018-04-26T12:56:21.242Z,25.50
2018-04-26T12:58:52.785Z,25.84
2018-04-26T13:01:21.547Z,23.82
2018-04-26T13:03:50.750Z,22.45
2018-04-26T13:06:19.700Z,22.57
2018-04-26T13:08:49.389Z,21.66
2018-04-26T13:11:19.629Z,21.86
2018-04-26T13:13:49.517Z,21.48
2018-04-26T13:16:18.556Z,23.92
2018-04-26T13:18:49.309Z,23.45
2018-04-26T13:21:18.321Z,24.31
2018-04-26T13:23:47.925Z,25.12
2018-04-26T13:26:16.759Z,24.83
2018-04-26T13:28:45.696Z,23.12
2018-04-26T13:31:14.454Z,24.66
2018-04-26T13:33:43.248Z,22.62
2018-04-26T13:36:12.770Z,26.06
2018-04-26T13:38:42.513Z,26.60
2018-04-26T13:41:12.336Z,25.74
2018-04-26T13:43:41.417Z,26.90
2018-04-26T13:46:10.887Z,27.04
2018-04-26T13:48:39.929Z,26.00
2018-04-26T13:51:09.308Z,24.95
2018-04-26T13:53:39.331Z,23.52
2018-04-26T13:56:08.855Z,25.21
2018-04-26T13:58:38.483Z,26.34
2018-04-26T14:01:08.026Z,25.47
2018-04-26T14:03:39.394Z,25.13
2018-04-26T14:06:08.858Z,24.67
2018-04-26T14:08:37.543Z,24.33
2018-04-26T14:11:08.603Z,23.39
2018-04-26T14:13:37.472Z,24.07
2018-04-26T14:16:06.143Z,23.59
2018-04-26T14:18:35.257Z,25.55
2018-04-26T14:21:04.533Z,26.40
2018-04-26T14:23:34.571Z,26.99
2018-04-26T14:26:04.587Z,26.54
2018-04-26T14:28:34.178Z,26.40
2018-04-26T14:31:04.371Z,26.05
2018-04-26T14:33:34.377Z,24.83
2018-04-26T14:36:03.841Z,25.19
2018-04-26T14:38:34.516Z,24.87
2018-04-26T14:41:03.253Z,26.06
2018-04-26T14:43:32.521Z,24.68
2018-04-26T14:46:03.255Z,26.58
2018-04-26T14:48:32.234Z,27.17
2018-04-26T14:51:01.349Z,25.91
2018-04-26T14:53:30.561Z,24.69
2018-04-26T14:55:59.543Z,26.25
2018-04-26T14:58:29.229Z,26.21
2018-04-26T15:00:59.361Z,27.22
2018-04-26T15:03:29.849Z,28.61
2018-04-26T15:05:59.530Z,27.39
2018-04-26T15:08:29.377Z,27.58
2018-04-26T15:10:58.011Z,27.09
2018-04-26T15:13:27.040Z,27.38
2018-04-26T15:15:57.129Z,28.26
2018-04-26T15:18:26.955Z,26.26
2018-04-26T15:20:55.895Z,27.27
2018-04-26T15:23:24.899Z,26.12
2018-04-26T15:25:54.472Z,25.67
2018-04-26T15:28:24.995Z,24.82
2018-04-26T15:30:53.799Z,25.60
2018-04-26T15:33:23.987Z,27.02
2018-04-26T15:35:53.250Z,28.70
2018-04-26T15:38:24.440Z,28.52
2018-04-26T15:40:56.096Z,28.65
2018-04-26T15:43:28.287Z,29.35
2018-04-26T15:45:58.994Z,30.54
2018-04-26T15:48:29.571Z,29.96
2018-04-26T15:51:04.628Z,27.85
2018-04-26T15:53:53.926Z,29.03
2018-04-26T15:56:46.604Z,30.06
2018-04-26T15:59:33.654Z,31.26
2018-04-26T16:05:51.631Z,31.18
2018-04-26T16:11:49.821Z,31.47
2018-04-26T16:14:37.573Z,32.19
2018-04-26T16:17:40.404Z,31.68
2018-04-26T16:24:12.433Z,32.19
2018-04-26T16:30:21.435Z,32.42
2018-04-26T16:36:12.471Z,32.16
2018-04-26T16:39:02.830Z,32.46
2018-04-26T16:41:32.768Z,32.17
2018-04-26T16:44:02.717Z,32.88
2018-04-26T16:46:34.819Z,32.17
2018-04-26T16:49:03.984Z,33.61
2018-04-26T16:51:32.818Z,32.70
2018-04-26T16:54:12.073Z,32.68
2018-04-26T16:56:41.396Z,33.06
2018-04-26T16:59:11.429Z,33.96
2018-04-26T17:01:42.393Z,34.36
2018-04-26T17:04:11.730Z,33.01
2018-04-26T17:06:40.753Z,34.53
2018-04-26T17:09:09.741Z,34.21
2018-04-26T17:11:39.050Z,34.18
2018-04-26T17:14:10.220Z,34.12
2018-04-26T17:16:41.699Z,34.03
2018-04-26T17:19:14.841Z,34.64
2018-04-26T17:21:45.541Z,34.62
2018-04-26T17:24:15.600Z,34.15
2018-04-26T17:26:45.824Z,34.63
2018-04-26T17:29:14.484Z,34.91
2018-04-26T17:31:44.420Z,35.01
2018-04-26T17:34:14.324Z,35.08
2018-04-26T17:36:43.729Z,35.36
2018-04-26T17:39:13.647Z,31.19
2018-04-26T17:41:43.191Z,31.84
2018-04-26T17:44:12.151Z,33.03
2018-04-26T17:46:42.362Z,33.13
2018-04-26T17:49:12.191Z,34.11
2018-04-26T17:51:42.761Z,34.73
2018-04-26T17:54:12.644Z,33.36
2018-04-26T17:56:42.435Z,31.68
2018-04-26T17:59:12.651Z,31.35
2018-04-26T18:01:42.032Z,32.26
2018-04-26T18:04:12.198Z,31.92
2018-04-26T18:06:42.168Z,31.85
2018-04-26T18:09:13.024Z,31.94
2018-04-26T18:11:42.337Z,33.17
2018-04-26T18:14:14.069Z,32.95
2018-04-26T18:16:45.438Z,32.94
2018-04-26T18:19:15.627Z,32.40
2018-04-26T18:21:45.446Z,40.25
2018-04-26T18:24:14.756Z,35.76
2018-04-26T18:26:46.086Z,40.32
2018-04-26T18:29:16.440Z,40.86
2018-04-26T18:31:46.408Z,40.80
2018-04-26T18:34:17.801Z,41.78
2018-04-26T18:36:47.566Z,43.06
2018-04-26T18:39:17.005Z,41.61
2018-04-26T18:41:46.423Z,43.99
2018-04-26T18:44:15.091Z,45.09
2018-04-26T18:46:44.911Z,44.96
2018-04-26T18:49:13.628Z,45.17
2018-04-26T18:51:45.391Z,45.41
2018-04-26T18:54:14.601Z,46.19
2018-04-26T18:56:43.414Z,43.25
2018-04-26T18:59:12.989Z,46.01
2018-04-26T19:01:43.165Z,45.84
2018-04-26T19:04:12.687Z,46.45
2018-04-26T19:06:41.540Z,46.42
2018-04-26T19:09:10.345Z,46.13
2018-04-26T19:11:40.297Z,46.22
2018-04-26T19:14:09.833Z,46.90
2018-04-26T19:16:39.700Z,46.08
2018-04-26T19:19:09.840Z,46.60
2018-04-26T19:21:41.138Z,46.28
2018-04-26T19:24:10.070Z,46.98
2018-04-26T19:26:40.411Z,47.27
2018-04-26T19:29:10.483Z,47.79
2018-04-26T19:31:41.365Z,48.91
2018-04-26T19:34:11.587Z,49.66
2018-04-26T19:36:41.252Z,49.13
2018-04-26T19:39:10.212Z,48.71
2018-04-26T19:41:40.188Z,49.00
2018-04-26T19:44:09.379Z,48.87
2018-04-26T19:46:38.439Z,49.17
2018-04-26T19:49:10.282Z,49.59
2018-04-26T19:51:40.256Z,50.42
2018-04-26T19:54:10.475Z,50.85
2018-04-26T19:56:41.748Z,51.03
2018-04-26T19:59:11.399Z,51.90
2018-04-26T20:01:40.822Z,51.90
2018-04-26T20:04:12.647Z,51.40
2018-04-26T20:06:43.327Z,51.78
2018-04-26T20:09:14.658Z,51.99
2018-04-26T20:11:43.799Z,52.56
2018-04-26T20:14:14.912Z,52.55
2018-04-26T20:16:46.006Z,52.83
2018-04-26T20:19:15.490Z,53.05
2018-04-26T20:21:44.640Z,53.30
2018-04-26T20:24:15.733Z,53.64
2018-04-26T20:26:45.087Z,53.60
2018-04-26T20:29:14.661Z,53.72
2018-04-26T20:31:45.005Z,53.87
2018-04-26T20:34:14.486Z,54.16
2018-04-26T20:36:43.987Z,55.05
2018-04-26T20:39:15.080Z,54.88
2018-04-26T20:41:59.357Z,54.96
2018-04-26T20:44:47.198Z,54.64
2018-04-26T20:47:18.630Z,54.47
2018-04-26T20:49:48.398Z,54.13
2018-04-26T20:52:18.579Z,53.69
2018-04-26T20:54:47.759Z,53.84
2018-04-26T20:57:18.326Z,54.02
2018-04-26T20:59:49.379Z,54.15
2018-04-26T21:02:19.523Z,53.94
2018-04-26T21:04:49.888Z,53.33
2018-04-26T21:07:19.075Z,54.29
2018-04-26T21:09:48.482Z,55.90
2018-04-26T21:12:18.040Z,57.40
2018-04-26T21:14:47.890Z,58.41
2018-04-26T21:17:17.315Z,59.28
2018-04-26T21:19:48.513Z,59.86
2018-04-26T21:22:18.022Z,60.12
2018-04-26T21:24:47.851Z,60.30
2018-04-26T21:27:17.356Z,60.73
2018-04-26T21:29:48.477Z,60.86
2018-04-26T21:32:18.637Z,60.07
2018-04-26T21:34:48.104Z,59.89
2018-04-26T21:37:19.055Z,60.29
2018-04-26T21:39:50.305Z,61.45
2018-04-26T21:42:20.647Z,61.01
2018-04-26T21:44:50.431Z,59.87
2018-04-26T21:47:20.541Z,59.33
2018-04-26T21:49:54.926Z,58.95
2018-04-26T21:52:30.848Z,59.87
2018-04-26T21:55:05.571Z,60.63
2018-04-26T21:57:40.521Z,61.93
2018-04-26T22:00:15.054Z,62.70
2018-04-26T22:02:43.637Z,62.86
2018-04-26T22:05:16.292Z,63.06
2018-04-26T22:07:45.986Z,63.25
2018-04-26T22:10:15.874Z,62.85
2018-04-26T22:12:44.801Z,61.69
2018-04-26T22:15:14.016Z,63.77
2018-04-26T22:17:43.067Z,64.30
2018-04-26T22:20:12.980Z,64.69
2018-04-26T22:22:43.166Z,64.85
2018-04-26T22:25:12.858Z,65.29
2018-04-26T22:27:42.222Z,65.60
2018-04-26T22:30:11.518Z,65.68
2018-04-26T22:32:40.962Z,66.14
2018-04-26T22:35:09.983Z,66.52
2018-04-26T22:37:38.789Z,66.89
2018-04-26T22:40:07.759Z,67.15
2018-04-26T22:42:37.532Z,66.88
2018-04-26T22:45:07.400Z,67.08
2018-04-26T22:47:36.968Z,67.47
2018-04-26T22:50:06.189Z,67.87
2018-04-26T22:52:35.883Z,67.99
2018-04-26T22:55:05.640Z,68.20
2018-04-26T22:57:34.553Z,67.58
2018-04-26T23:00:03.500Z,65.39
2018-04-26T23:02:33.043Z,65.02
2018-04-26T23:05:03.166Z,64.48
2018-04-26T23:07:32.499Z,64.10
2018-04-26T23:10:01.266Z,65.06
2018-04-26T23:12:30.380Z,66.73
2018-04-26T23:14:59.287Z,67.23
2018-04-26T23:17:30.099Z,68.18
2018-04-26T23:19:59.533Z,69.33
2018-04-26T23:22:29.988Z,69.80
2018-04-26T23:24:59.499Z,68.71
2018-04-26T23:27:30.008Z,67.48
2018-04-26T23:29:59.693Z,66.96
2018-04-26T23:32:29.552Z,69.17
2018-04-26T23:34:59.598Z,69.28
2018-04-26T23:37:29.359Z,67.09
2018-04-26T23:39:58.543Z,67.21
2018-04-26T23:42:28.839Z,68.73
2018-04-26T23:44:59.288Z,69.35
2018-04-26T23:47:28.923Z,69.57
2018-04-26T23:49:57.942Z,69.37
2018-04-26T23:52:26.700Z,68.11
2018-04-26T23:54:56.339Z,67.88
2018-04-26T23:57:25.676Z,66.89
2018-04-26T23:59:54.660Z,68.08
